Time;durP1;ratioP1;P1;durP2;ratioP2;P2;SDS_P1;SDS_P2;PMS_P1;PMS_P2;Temp;Humidity;BMP_temperature;BMP_pressure;BME280_temperature;BME280_humidity;BME280_pressure;Samples;Min_cycle;Max_cycle;Signal;HPM_P1;HPM_P2
2021/04/27 00:00:01;;;;;;;7.22;3.90;;;4.50;94.30;;;;;;5105355;28;20503;-64
2021/04/27 00:02:27;;;;;;;4.78;3.38;;;4.50;94.30;;;;;;5104804;28;20055;-64
2021/04/27 00:04:52;;;;;;;7.93;3.72;;;4.50;94.20;;;;;;5104967;28;20047;-64
2021/04/27 00:07:18;;;;;;;8.30;4.05;;;4.40;94.20;;;;;;5105701;28;20496;-64
2021/04/27 00:09:44;;;;;;;7.15;3.60;;;4.30;94.30;;;;;;5106815;28;20043;-64
2021/04/27 00:12:10;;;;;;;6.47;3.53;;;4.30;94.50;;;;;;5105222;28;20048;-64
2021/04/27 00:14:37;;;;;;;6.13;3.70;;;4.40;94.40;;;;;;5104794;28;20058;-64
2021/04/27 00:17:03;;;;;;;5.80;3.50;;;4.50;94.50;;;;;;5106495;28;20052;-64
2021/04/27 00:19:29;;;;;;;8.57;3.85;;;4.70;94.30;;;;;;5106131;28;20115;-64
2021/04/27 00:21:55;;;;;;;5.78;3.70;;;4.70;94.20;;;;;;5104619;28;20087;-64
2021/04/27 00:24:21;;;;;;;5.13;3.97;;;4.70;93.90;;;;;;5104833;28;20044;-64
2021/04/27 00:26:47;;;;;;;7.70;4.15;;;4.80;93.90;;;;;;5104990;28;20056;-64
2021/04/27 00:29:13;;;;;;;7.15;3.67;;;4.80;94.00;;;;;;5104293;28;20039;-64
2021/04/27 00:31:39;;;;;;;8.90;3.83;;;4.70;93.40;;;;;;5105503;28;20058;-64
2021/04/27 00:34:05;;;;;;;7.95;4.40;;;4.60;93.20;;;;;;5104689;28;20105;-64
2021/04/27 00:36:31;;;;;;;6.32;4.13;;;4.40;94.00;;;;;;5104401;28;20423;-64
2021/04/27 00:38:57;;;;;;;6.38;3.75;;;4.50;94.40;;;;;;5104328;28;20071;-64
2021/04/27 00:41:23;;;;;;;7.60;4.32;;;4.40;94.60;;;;;;5104392;28;20119;-64
2021/04/27 00:43:49;;;;;;;6.65;3.70;;;4.40;95.20;;;;;;5105215;28;20036;-64
2021/04/27 00:46:15;;;;;;;6.28;4.00;;;4.40;94.60;;;;;;5104245;28;20074;-64
2021/04/27 00:48:41;;;;;;;6.35;3.60;;;4.60;94.50;;;;;;5099611;28;20036;-64
2021/04/27 00:51:08;;;;;;;7.20;3.90;;;4.70;94.20;;;;;;5106274;28;20107;-64
2021/04/27 00:53:34;;;;;;;8.95;4.07;;;4.70;94.10;;;;;;5106024;28;20055;-64
2021/04/27 00:56:00;;;;;;;4.95;3.60;;;4.70;94.00;;;;;;5104536;28;20071;-64
2021/04/27 00:58:27;;;;;;;6.57;3.78;;;4.80;94.00;;;;;;5103575;28;20040;-64
2021/04/27 01:00:53;;;;;;;7.20;3.85;;;4.70;94.10;;;;;;5104315;28;20553;-64
2021/04/27 01:03:19;;;;;;;10.23;3.95;;;4.60;94.00;;;;;;5105188;28;20070;-64
2021/04/27 01:05:46;;;;;;;6.55;3.83;;;4.50;94.30;;;;;;5104318;28;20076;-64
2021/04/27 01:08:21;;;;;;;8.65;4.82;;;4.30;94.50;;;;;;5103668;28;20039;-64
2021/04/27 01:11:10;;;;;;;5.40;4.10;;;4.40;94.70;;;;;;5105864;28;20086;-63
2021/04/27 01:14:01;;;;;;;9.95;4.22;;;4.50;94.70;;;;;;5104007;28;20062;-63
2021/04/27 01:16:30;;;;;;;7.80;3.85;;;4.40;94.80;;;;;;5102829;28;20078;-63
2021/04/27 01:18:56;;;;;;;7.63;4.03;;;4.50;94.60;;;;;;5104022;28;20044;-64
2021/04/27 01:21:24;;;;;;;9.15;4.35;;;4.60;94.60;;;;;;5103633;28;20048;-64
2021/04/27 01:24:29;;;;;;;6.68;4.05;;;4.70;94.30;;;;;;5085533;28;20070;-63
2021/04/27 01:26:59;;;;;;;8.15;3.80;;;4.70;94.20;;;;;;5091001;28;20044;-63
2021/04/27 01:29:28;;;;;;;6.43;3.83;;;4.70;93.90;;;;;;5103522;28;20105;-63
2021/04/27 01:31:57;;;;;;;6.55;4.13;;;4.30;93.10;;;;;;5103730;28;20052;-63
2021/04/27 01:34:31;;;;;;;9.38;4.38;;;4.20;94.20;;;;;;5103542;28;20063;-63
2021/04/27 01:36:58;;;;;;;9.10;4.53;;;4.00;94.80;;;;;;5103752;28;20048;-63
2021/04/27 01:39:27;;;;;;;9.73;4.75;;;4.00;95.50;;;;;;5104648;28;20100;-63
2021/04/27 01:41:58;;;;;;;8.70;4.47;;;4.00;95.60;;;;;;5105676;28;20048;-63
2021/04/27 01:44:26;;;;;;;6.35;4.25;;;4.00;95.50;;;;;;5103540;28;20089;-63
2021/04/27 01:46:52;;;;;;;8.70;4.18;;;3.90;95.70;;;;;;5103693;28;20059;-64
2021/04/27 01:49:18;;;;;;;8.25;4.05;;;3.80;95.80;;;;;;5085104;28;20115;-63
2021/04/27 01:51:46;;;;;;;8.52;4.50;;;3.70;96.30;;;;;;5103347;28;20105;-64
2021/04/27 01:54:13;;;;;;;7.78;4.65;;;3.70;96.30;;;;;;5103441;28;20052;-64
2021/04/27 01:56:39;;;;;;;9.52;4.60;;;3.50;96.50;;;;;;5105052;28;20051;-63
2021/04/27 01:59:06;;;;;;;6.38;4.40;;;3.40;96.60;;;;;;5104901;28;20048;-64
2021/04/27 02:01:33;;;;;;;8.00;4.47;;;3.40;96.80;;;;;;5103279;28;20111;-63
2021/04/27 02:03:58;;;;;;;9.93;4.38;;;3.30;96.80;;;;;;5103750;28;20048;-64
2021/04/27 02:06:27;;;;;;;9.48;4.40;;;3.40;96.90;;;;;;5104922;28;20052;-64
2021/04/27 02:09:13;;;;;;;6.38;4.40;;;3.40;96.90;;;;;;5105069;28;20036;-63
2021/04/27 02:11:43;;;;;;;13.13;4.78;;;3.30;97.10;;;;;;5094264;28;20048;-64
2021/04/27 02:14:11;;;;;;;9.50;4.73;;;3.20;97.40;;;;;;5103245;28;20044;-64
2021/04/27 02:17:06;;;;;;;8.73;4.18;;;3.10;97.70;;;;;;5103742;28;20344;-63
2021/04/27 02:19:33;;;;;;;8.95;4.85;;;3.10;97.60;;;;;;5107221;28;20539;-63
2021/04/27 02:22:03;;;;;;;11.68;4.72;;;3.00;97.70;;;;;;5108031;28;20094;-63
2021/04/27 02:24:29;;;;;;;6.85;4.30;;;2.90;97.90;;;;;;5108328;28;20107;-63
2021/04/27 02:26:56;;;;;;;9.73;4.95;;;2.80;98.10;;;;;;5108348;28;20119;-63
2021/04/27 02:29:24;;;;;;;7.85;4.45;;;2.80;98.40;;;;;;5108341;28;20107;-63
2021/04/27 02:31:50;;;;;;;9.25;4.93;;;2.70;98.50;;;;;;5108886;28;20043;-63
2021/04/27 02:34:21;;;;;;;11.27;4.72;;;2.70;98.80;;;;;;5108469;28;20055;-63
2021/04/27 02:36:48;;;;;;;14.73;4.72;;;2.70;98.70;;;;;;5106848;28;20063;-63
2021/04/27 02:39:14;;;;;;;7.32;4.53;;;2.60;97.80;;;;;;5106675;28;20094;-63
2021/04/27 02:41:41;;;;;;;6.50;4.40;;;2.60;98.10;;;;;;5106593;28;20044;-63
2021/04/27 02:44:11;;;;;;;7.88;5.03;;;2.50;98.10;;;;;;5107444;28;20523;-64
2021/04/27 02:46:38;;;;;;;9.27;4.93;;;2.50;97.90;;;;;;5108398;28;20048;-64
2021/04/27 02:49:05;;;;;;;10.02;4.90;;;2.50;98.20;;;;;;5107943;28;20055;-63
2021/04/27 02:51:32;;;;;;;12.63;5.30;;;2.60;98.70;;;;;;5108369;28;20044;-63
2021/04/27 02:53:59;;;;;;;11.13;5.07;;;2.50;98.70;;;;;;5106156;28;20072;-63
2021/04/27 02:56:25;;;;;;;7.82;5.10;;;2.50;99.40;;;;;;5106177;28;20070;-64
2021/04/27 02:58:51;;;;;;;10.98;4.85;;;2.50;99.20;;;;;;5106236;28;20044;-63
2021/04/27 03:01:17;;;;;;;7.47;4.97;;;2.50;99.30;;;;;;5105946;28;20048;-63
2021/04/27 03:03:43;;;;;;;6.80;4.95;;;2.40;99.30;;;;;;5106305;28;20044;-63
2021/04/27 03:06:09;;;;;;;9.02;6.00;;;2.40;99.40;;;;;;5106178;28;20067;-63
2021/04/27 03:08:35;;;;;;;9.00;5.82;;;2.40;99.50;;;;;;5106089;28;20074;-63
2021/04/27 03:11:01;;;;;;;8.23;5.22;;;2.30;99.80;;;;;;5106304;28;20044;-63
2021/04/27 03:13:27;;;;;;;9.52;4.90;;;2.30;99.70;;;;;;5106524;28;20048;-63
2021/04/27 03:15:53;;;;;;;9.48;5.13;;;2.30;99.80;;;;;;5106019;28;20040;-63
2021/04/27 03:18:19;;;;;;;9.43;5.55;;;2.20;99.60;;;;;;5105984;28;20048;-63
2021/04/27 03:20:45;;;;;;;9.05;5.18;;;2.20;99.80;;;;;;5105352;28;20052;-63
2021/04/27 03:23:11;;;;;;;8.70;5.18;;;2.10;99.90;;;;;;5108113;28;20048;-63
2021/04/27 03:25:38;;;;;;;9.95;5.72;;;2.20;99.90;;;;;;5106967;28;20065;-63
2021/04/27 03:28:08;;;;;;;6.45;5.05;;;2.30;99.90;;;;;;5105619;28;20044;-63
2021/04/27 03:30:35;;;;;;;8.35;5.72;;;2.20;99.90;;;;;;5104938;28;20492;-63
2021/04/27 03:33:02;;;;;;;10.50;6.22;;;2.10;99.90;;;;;;5105876;28;20040;-63
2021/04/27 03:35:28;;;;;;;10.70;5.97;;;2.00;99.90;;;;;;5105441;28;20067;-63
2021/04/27 03:37:54;;;;;;;9.50;6.15;;;1.90;99.90;;;;;;5105882;28;20059;-63
2021/04/27 03:40:20;;;;;;;9.32;5.78;;;1.80;99.90;;;;;;5105065;28;20047;-64
2021/04/27 03:42:46;;;;;;;9.55;6.40;;;1.70;99.90;;;;;;5105598;28;20047;-63
2021/04/27 03:45:20;;;;;;;11.40;6.28;;;1.60;99.90;;;;;;5105262;28;20048;-63
2021/04/27 03:47:46;;;;;;;8.95;6.40;;;1.50;99.90;;;;;;5099959;28;20055;-63
2021/04/27 03:50:16;;;;;;;7.65;5.97;;;1.50;99.90;;;;;;5105073;28;20112;-63
2021/04/27 03:52:42;;;;;;;6.90;5.97;;;1.50;99.90;;;;;;5105323;28;20093;-64
2021/04/27 03:55:09;;;;;;;9.77;5.53;;;1.50;99.90;;;;;;5105271;28;20050;-64
2021/04/27 03:57:36;;;;;;;8.95;6.15;;;1.50;99.90;;;;;;5105659;28;20040;-63
2021/04/27 04:00:05;;;;;;;11.98;7.32;;;1.50;99.90;;;;;;5106001;28;20072;-63
2021/04/27 04:02:31;;;;;;;9.95;5.80;;;1.40;99.90;;;;;;5106729;28;20062;-63
2021/04/27 04:04:57;;;;;;;11.23;6.32;;;1.40;99.90;;;;;;5104880;28;20043;-63
2021/04/27 04:07:23;;;;;;;8.77;6.97;;;1.40;99.90;;;;;;5104890;28;20044;-63
2021/04/27 04:09:49;;;;;;;10.02;5.78;;;1.30;99.70;;;;;;5104775;28;20052;-63
2021/04/27 04:12:15;;;;;;;11.48;6.38;;;1.30;99.60;;;;;;5105873;28;20048;-64
2021/04/27 04:14:41;;;;;;;10.38;5.90;;;1.30;99.50;;;;;;5105102;28;20454;-63
2021/04/27 04:17:07;;;;;;;9.93;6.68;;;1.30;99.90;;;;;;5104914;28;20059;-64
2021/04/27 04:19:33;;;;;;;8.32;6.03;;;1.40;99.90;;;;;;5106621;28;20070;-63
2021/04/27 04:21:59;;;;;;;11.57;6.50;;;1.40;99.90;;;;;;5106178;28;20095;-63
2021/04/27 04:24:25;;;;;;;8.60;6.28;;;1.40;99.90;;;;;;5105570;28;20055;-63
2021/04/27 04:26:51;;;;;;;8.50;6.57;;;1.40;99.90;;;;;;5104887;28;20096;-64
2021/04/27 04:29:17;;;;;;;9.35;6.95;;;1.40;99.90;;;;;;5104610;28;20145;-63
2021/04/27 04:31:43;;;;;;;8.85;5.80;;;1.40;99.90;;;;;;5104144;28;20044;-63
2021/04/27 04:34:09;;;;;;;7.07;5.80;;;1.40;99.90;;;;;;5104796;28;20048;-63
2021/04/27 04:36:35;;;;;;;10.60;6.15;;;1.30;99.90;;;;;;5105045;28;20126;-63
2021/04/27 04:39:01;;;;;;;10.50;6.15;;;1.30;99.70;;;;;;5104111;28;20059;-63
2021/04/27 04:41:27;;;;;;;12.35;6.18;;;1.30;99.70;;;;;;5104238;28;20078;-63
2021/04/27 04:43:53;;;;;;;8.10;6.47;;;1.30;99.50;;;;;;5104478;28;20119;-63
2021/04/27 04:46:19;;;;;;;8.95;6.47;;;1.20;99.70;;;;;;5104434;28;20044;-63
2021/04/27 04:48:46;;;;;;;9.50;6.88;;;1.20;99.70;;;;;;5104095;28;20159;-63
2021/04/27 04:51:12;;;;;;;11.38;6.97;;;1.20;99.90;;;;;;5104715;28;20499;-63
2021/04/27 04:53:38;;;;;;;7.70;6.57;;;1.20;99.90;;;;;;5105151;28;20052;-64
2021/04/27 04:56:05;;;;;;;10.27;7.03;;;1.30;99.90;;;;;;5104407;28;20032;-63
2021/04/27 04:58:31;;;;;;;9.27;6.47;;;1.30;99.90;;;;;;5104115;28;20052;-64
2021/04/27 05:00:57;;;;;;;8.75;6.68;;;1.30;99.90;;;;;;5103809;28;20067;-63
2021/04/27 05:03:24;;;;;;;11.52;6.28;;;1.30;99.90;;;;;;5104324;28;20055;-63
2021/04/27 05:05:50;;;;;;;7.63;6.10;;;1.30;99.90;;;;;;5105945;28;20040;-63
2021/04/27 05:08:22;;;;;;;9.05;6.43;;;1.30;99.90;;;;;;5104939;28;20051;-63
2021/04/27 05:10:49;;;;;;;9.68;6.30;;;1.40;99.90;;;;;;5103631;28;20504;-63
2021/04/27 05:13:15;;;;;;;11.27;6.88;;;1.50;99.90;;;;;;5104212;28;20055;-63
2021/04/27 05:15:41;;;;;;;8.70;6.90;;;1.60;99.90;;;;;;5103833;28;20047;-63
2021/04/27 05:18:07;;;;;;;7.80;6.13;;;1.70;99.90;;;;;;5103839;28;20056;-63
2021/04/27 05:20:33;;;;;;;9.63;5.53;;;1.80;99.90;;;;;;5104029;28;20048;-63
2021/04/27 05:23:01;;;;;;;8.25;6.63;;;1.90;99.90;;;;;;5103526;28;20058;-63
2021/04/27 05:25:28;;;;;;;9.93;5.82;;;2.00;99.90;;;;;;5103801;28;20099;-63
2021/04/27 05:27:54;;;;;;;7.47;5.57;;;2.20;99.90;;;;;;5103809;28;20040;-63
2021/04/27 05:30:20;;;;;;;7.50;5.32;;;2.30;99.90;;;;;;5105405;28;20051;-63
2021/04/27 05:32:46;;;;;;;7.40;5.57;;;2.40;99.90;;;;;;5104382;28;20058;-63
2021/04/27 05:35:13;;;;;;;8.05;5.50;;;2.50;99.90;;;;;;5103500;28;20067;-63
2021/04/27 05:37:39;;;;;;;9.00;4.80;;;2.60;99.90;;;;;;5103668;28;20044;-63
2021/04/27 05:40:06;;;;;;;7.38;5.03;;;2.70;99.40;;;;;;5103748;28;20096;-63
2021/04/27 05:42:31;;;;;;;8.82;5.43;;;2.70;99.10;;;;;;5105013;28;20040;-63
2021/04/27 05:44:58;;;;;;;9.10;5.68;;;2.80;99.10;;;;;;5103680;28;20423;-63
2021/04/27 05:47:24;;;;;;;7.20;4.95;;;2.90;99.10;;;;;;5103874;28;20125;-63
2021/04/27 05:49:49;;;;;;;6.28;4.63;;;2.90;98.80;;;;;;5105631;28;20472;-63
2021/04/27 05:52:15;;;;;;;6.38;4.93;;;3.00;98.60;;;;;;5103992;28;20040;-63
2021/04/27 05:54:41;;;;;;;8.30;4.63;;;3.10;98.50;;;;;;5106963;28;20077;-63
2021/04/27 05:57:07;;;;;;;7.40;5.00;;;3.30;98.40;;;;;;5107331;28;20048;-63
2021/04/27 05:59:34;;;;;;;6.38;4.15;;;3.30;98.20;;;;;;5107532;28;20086;-63
2021/04/27 06:02:00;;;;;;;5.30;4.15;;;3.40;97.80;;;;;;5106975;28;20052;-63
2021/04/27 06:04:26;;;;;;;5.68;3.90;;;3.60;97.70;;;;;;5107362;28;20047;-63
2021/04/27 06:06:52;;;;;;;6.50;3.95;;;3.70;97.60;;;;;;5107337;28;20056;-63
2021/04/27 06:09:18;;;;;;;6.82;3.83;;;3.80;97.40;;;;;;5106855;28;20040;-63
2021/04/27 06:11:44;;;;;;;5.75;3.60;;;3.90;96.90;;;;;;5106822;28;20096;-61
2021/04/27 06:14:10;;;;;;;4.30;3.45;;;4.10;96.40;;;;;;5106976;28;20074;-60
2021/04/27 06:16:36;;;;;;;4.38;3.25;;;4.20;95.90;;;;;;5109096;28;20044;-60
2021/04/27 06:19:03;;;;;;;3.97;3.17;;;4.30;95.70;;;;;;5108437;28;20051;-61
2021/04/27 06:21:29;;;;;;;6.97;4.25;;;4.50;94.60;;;;;;5107671;28;20504;-61
2021/04/27 06:23:56;;;;;;;5.85;3.22;;;4.50;94.70;;;;;;5106335;28;20070;-62
2021/04/27 06:26:22;;;;;;;6.70;3.55;;;4.60;94.40;;;;;;5106714;28;20072;-63
2021/04/27 06:28:49;;;;;;;4.13;3.53;;;4.70;94.10;;;;;;5107738;28;20040;-62
2021/04/27 06:31:15;;;;;;;5.93;4.00;;;4.80;94.00;;;;;;5108201;28;20047;-62
2021/04/27 06:33:40;;;;;;;7.20;3.58;;;4.90;93.80;;;;;;5106992;28;20085;-62
2021/04/27 06:36:06;;;;;;;5.47;3.13;;;5.00;93.90;;;;;;5106273;28;20055;-62
2021/04/27 06:38:32;;;;;;;5.93;3.58;;;5.10;93.00;;;;;;5106798;28;20063;-62
2021/04/27 06:40:58;;;;;;;12.98;3.88;;;5.20;92.60;;;;;;5106472;28;20055;-62
2021/04/27 06:43:24;;;;;;;6.00;3.95;;;5.30;92.20;;;;;;5107092;28;20059;-62
2021/04/27 06:45:50;;;;;;;6.72;2.80;;;5.40;91.40;;;;;;5104685;28;20052;-62
2021/04/27 06:48:16;;;;;;;6.03;2.50;;;5.60;90.20;;;;;;5104414;28;20073;-61
2021/04/27 06:50:43;;;;;;;3.78;2.85;;;5.70;90.70;;;;;;5107194;28;20047;-61
2021/04/27 06:53:09;;;;;;;4.35;2.85;;;5.80;90.40;;;;;;5107079;28;20048;-62
2021/04/27 06:55:36;;;;;;;6.30;2.50;;;5.90;89.60;;;;;;5106223;28;20040;-61
2021/04/27 06:58:05;;;;;;;4.93;2.83;;;6.00;88.70;;;;;;5107326;28;20496;-61
2021/04/27 07:00:32;;;;;;;8.68;2.88;;;6.10;89.10;;;;;;5107210;28;20047;-62
2021/04/27 07:02:58;;;;;;;6.35;2.67;;;6.10;88.50;;;;;;5106369;28;20064;-62
2021/04/27 07:05:23;;;;;;;3.90;2.70;;;6.30;87.30;;;;;;5106453;28;20044;-61
2021/04/27 07:07:49;;;;;;;4.80;2.40;;;6.50;83.30;;;;;;5108118;28;20047;-62
2021/04/27 07:10:15;;;;;;;4.18;2.70;;;6.60;82.90;;;;;;5107941;28;20043;-63
2021/04/27 07:12:41;;;;;;;4.47;3.15;;;6.70;81.80;;;;;;5107615;28;20108;-62
2021/04/27 07:15:07;;;;;;;3.95;2.80;;;6.80;81.50;;;;;;5107988;28;20087;-61
2021/04/27 07:17:33;;;;;;;4.25;2.40;;;7.00;79.40;;;;;;5107909;28;20050;-62
2021/04/27 07:19:59;;;;;;;4.03;2.60;;;7.20;77.90;;;;;;5106893;28;20533;-62
2021/04/27 07:22:27;;;;;;;6.32;3.03;;;7.40;77.60;;;;;;5106552;28;20135;-63
2021/04/27 07:24:54;;;;;;;3.35;2.05;;;7.40;77.20;;;;;;5106749;28;20040;-68
2021/04/27 07:27:20;;;;;;;6.32;2.67;;;7.50;77.20;;;;;;5106780;28;20040;-65
2021/04/27 07:29:45;;;;;;;8.18;2.92;;;7.80;72.70;;;;;;5107419;28;20047;-67
2021/04/27 07:32:12;;;;;;;6.78;3.30;;;7.80;74.10;;;;;;5106869;28;20122;-67
2021/04/27 07:34:39;;;;;;;5.72;2.63;;;7.80;75.70;;;;;;5106488;28;20044;-66
2021/04/27 07:37:04;;;;;;;3.92;2.78;;;7.90;74.20;;;;;;5038703;28;20166;-70
2021/04/27 07:39:31;;;;;;;5.75;2.83;;;7.90;74.30;;;;;;5078041;28;20142;-70
2021/04/27 07:41:57;;;;;;;5.28;2.38;;;8.00;72.80;;;;;;5075012;28;20052;-71
2021/04/27 07:44:23;;;;;;;6.40;2.60;;;8.20;70.70;;;;;;5070728;28;20045;-68
2021/04/27 07:46:49;;;;;;;5.80;2.42;;;8.40;70.30;;;;;;5092994;28;20046;-73
2021/04/27 07:49:15;;;;;;;3.90;2.53;;;8.40;70.80;;;;;;5085197;28;20079;-73
2021/04/27 07:51:41;;;;;;;7.28;2.85;;;8.40;70.60;;;;;;5090897;28;20040;-67
2021/04/27 07:54:07;;;;;;;4.00;2.80;;;8.40;69.80;;;;;;5089083;28;20090;-72
2021/04/27 07:56:33;;;;;;;5.18;2.95;;;8.50;69.30;;;;;;5100920;28;20047;-68
2021/04/27 07:59:03;;;;;;;4.85;2.95;;;8.40;70.20;;;;;;5090880;28;20051;-67
2021/04/27 08:01:31;;;;;;;3.95;2.92;;;8.40;71.80;;;;;;5100286;28;20368;-67
2021/04/27 08:03:57;;;;;;;5.95;3.17;;;8.40;72.30;;;;;;5088670;28;20175;-67
2021/04/27 08:06:23;;;;;;;3.72;2.78;;;8.50;70.60;;;;;;5083518;28;20137;-67
2021/04/27 08:08:49;;;;;;;4.78;2.67;;;8.50;68.80;;;;;;5087503;28;24466;-67
2021/04/27 08:11:16;;;;;;;7.72;3.50;;;8.70;69.30;;;;;;5091528;28;20556;-67
2021/04/27 08:13:42;;;;;;;8.10;3.25;;;8.90;65.90;;;;;;5089167;28;20092;-67
2021/04/27 08:16:08;;;;;;;5.18;2.28;;;9.00;64.50;;;;;;5089478;28;20131;-68
2021/04/27 08:18:36;;;;;;;7.63;2.30;;;9.10;62.70;;;;;;5089314;28;20067;-67
2021/04/27 08:21:06;;;;;;;7.50;2.60;;;9.30;61.80;;;;;;5085429;28;20245;-74
2021/04/27 08:23:35;;;;;;;4.47;2.42;;;9.30;62.30;;;;;;5097088;28;20040;-65
2021/04/27 08:26:05;;;;;;;4.85;2.30;;;9.20;64.10;;;;;;5069569;28;20103;-68
2021/04/27 08:28:32;;;;;;;2.97;2.30;;;9.30;64.00;;;;;;5098329;28;20043;-68
2021/04/27 08:30:58;;;;;;;3.45;2.60;;;9.30;62.10;;;;;;5084445;28;20047;-68
2021/04/27 08:33:25;;;;;;;3.47;2.20;;;9.40;61.40;;;;;;5095656;28;20044;-68
2021/04/27 08:35:52;;;;;;;5.40;2.33;;;9.60;59.90;;;;;;5067794;28;20052;-67
2021/04/27 08:38:18;;;;;;;4.93;2.58;;;9.60;61.10;;;;;;5068464;28;20053;-66
2021/04/27 08:40:45;;;;;;;4.85;2.30;;;9.60;60.10;;;;;;5081939;28;20062;-65
2021/04/27 08:43:13;;;;;;;4.80;2.13;;;9.70;59.50;;;;;;5099039;28;20148;-67
2021/04/27 08:45:40;;;;;;;5.88;2.15;;;9.90;56.70;;;;;;5084962;28;20164;-67
2021/04/27 08:48:11;;;;;;;3.60;2.10;;;9.80;58.20;;;;;;5077794;28;20097;-67
2021/04/27 08:50:38;;;;;;;4.18;2.40;;;9.80;58.20;;;;;;5072529;28;20464;-68
2021/04/27 08:53:05;;;;;;;5.53;2.50;;;9.90;57.50;;;;;;5095170;28;20147;-68
2021/04/27 08:55:31;;;;;;;4.75;2.72;;;10.10;54.50;;;;;;5062166;28;20071;-67
2021/04/27 08:57:57;;;;;;;3.15;2.20;;;10.00;55.10;;;;;;5074714;28;20044;-69
2021/04/27 09:00:25;;;;;;;3.58;2.22;;;10.10;52.30;;;;;;5074504;28;20090;-70
2021/04/27 09:03:00;;;;;;;3.00;2.25;;;10.10;54.50;;;;;;5075637;28;20036;-68
2021/04/27 09:05:29;;;;;;;2.97;2.50;;;10.20;54.30;;;;;;5092552;28;20080;-68
2021/04/27 09:07:56;;;;;;;4.85;2.60;;;10.40;53.40;;;;;;5080771;28;20040;-67
2021/04/27 09:10:30;;;;;;;3.38;2.08;;;10.30;56.20;;;;;;5079939;28;20068;-67
2021/04/27 09:13:01;;;;;;;5.18;2.30;;;10.30;55.80;;;;;;5094212;28;20074;-67
2021/04/27 09:15:37;;;;;;;5.78;2.08;;;10.40;55.10;;;;;;5084845;28;20062;-67
2021/04/27 09:18:21;;;;;;;3.92;2.30;;;10.50;54.20;;;;;;5095682;28;20515;-68
2021/04/27 09:20:53;;;;;;;5.78;2.25;;;10.60;53.00;;;;;;5073483;28;20052;-68
2021/04/27 09:23:19;;;;;;;6.97;2.70;;;10.70;52.90;;;;;;5098127;28;20082;-67
2021/04/27 09:26:09;;;;;;;6.80;2.60;;;10.80;50.30;;;;;;5065936;28;20070;-67
2021/04/27 09:28:37;;;;;;;3.42;2.17;;;10.70;49.90;;;;;;5098698;28;20048;-74
2021/04/27 09:31:24;;;;;;;5.10;2.65;;;10.90;49.00;;;;;;5098955;28;20067;-69
2021/04/27 09:33:50;;;;;;;4.22;2.60;;;10.90;50.50;;;;;;5076724;28;20099;-72
2021/04/27 09:36:24;;;;;;;4.97;2.47;;;10.90;49.90;;;;;;5097669;28;20061;-71
2021/04/27 09:38:54;;;;;;;3.92;2.47;;;11.00;47.90;;;;;;5080377;28;20036;-72
2021/04/27 09:41:25;;;;;;;6.07;2.63;;;10.90;48.70;;;;;;5070771;28;20110;-70
2021/04/27 09:43:52;;;;;;;8.05;3.08;;;10.90;50.70;;;;;;5080946;28;20531;-73
2021/04/27 09:46:21;;;;;;;3.42;2.67;;;11.00;51.30;;;;;;5071832;28;20052;-72
2021/04/27 09:48:48;;;;;;;4.63;2.58;;;11.00;49.30;;;;;;5083824;28;20052;-73
2021/04/27 09:51:14;;;;;;;7.43;3.13;;;11.10;48.90;;;;;;5077697;28;20044;-73
2021/04/27 09:53:42;;;;;;;3.95;2.10;;;11.10;48.00;;;;;;5078175;28;20120;-71
2021/04/27 09:56:09;;;;;;;3.88;2.63;;;11.20;47.60;;;;;;5054106;28;20057;-72
2021/04/27 09:58:36;;;;;;;4.78;2.60;;;11.30;47.00;;;;;;5064099;28;20045;-73
2021/04/27 10:01:05;;;;;;;4.60;2.20;;;11.40;46.70;;;;;;5052087;28;20037;-73
2021/04/27 10:03:32;;;;;;;4.95;2.70;;;11.30;49.40;;;;;;5063682;28;20063;-75
2021/04/27 10:05:58;;;;;;;6.43;2.58;;;11.30;49.10;;;;;;5036170;28;20060;-75
2021/04/27 10:08:25;;;;;;;5.45;2.45;;;11.40;48.70;;;;;;5063252;28;20036;-71
2021/04/27 10:10:51;;;;;;;4.78;2.33;;;11.50;47.90;;;;;;5053143;28;20083;-69
2021/04/27 10:13:17;;;;;;;3.78;2.25;;;11.60;47.10;;;;;;5064769;28;20314;-69
2021/04/27 10:15:45;;;;;;;4.25;2.40;;;11.60;45.10;;;;;;5038171;28;20514;-71
2021/04/27 10:18:11;;;;;;;3.25;2.45;;;11.60;45.20;;;;;;5060794;28;20309;-74
2021/04/27 10:20:38;;;;;;;4.43;2.50;;;11.60;46.00;;;;;;5052231;28;20053;-72
2021/04/27 10:23:07;;;;;;;4.72;2.40;;;11.60;44.00;;;;;;5062742;28;20048;-72
2021/04/27 10:25:35;;;;;;;7.30;2.30;;;11.70;44.10;;;;;;5056057;28;20448;-71
2021/04/27 10:28:04;;;;;;;3.97;2.30;;;11.70;45.70;;;;;;5062585;28;20049;-71
2021/04/27 10:30:42;;;;;;;3.65;2.03;;;11.90;44.00;;;;;;5052719;28;20671;-68
2021/04/27 10:33:25;;;;;;;3.30;2.40;;;12.00;42.30;;;;;;5064310;28;20044;-69
2021/04/27 10:36:08;;;;;;;3.85;2.30;;;11.90;44.00;;;;;;5045382;28;20055;-70
2021/04/27 10:38:44;;;;;;;4.15;2.30;;;11.80;46.70;;;;;;5081867;28;20064;-70
2021/04/27 10:41:12;;;;;;;3.38;2.22;;;12.00;44.30;;;;;;5067766;28;20048;-70
2021/04/27 10:43:43;;;;;;;4.45;2.80;;;12.00;44.90;;;;;;5081355;28;20356;-70
2021/04/27 10:46:16;;;;;;;3.72;2.60;;;12.10;44.30;;;;;;5077681;28;20476;-69
2021/04/27 10:48:45;;;;;;;4.38;2.28;;;12.00;46.50;;;;;;5078872;28;20037;-69
2021/04/27 10:51:20;;;;;;;3.63;2.60;;;12.10;48.60;;;;;;5068714;28;20055;-68
2021/04/27 10:54:08;;;;;;;4.70;2.65;;;12.20;48.20;;;;;;5087363;28;20078;-71
2021/04/27 10:56:46;;;;;;;5.03;2.47;;;12.50;49.70;;;;;;5071251;28;20082;-66
2021/04/27 10:59:20;;;;;;;3.13;2.35;;;12.50;45.90;;;;;;5091197;28;20103;-67
2021/04/27 11:01:48;;;;;;;4.72;1.98;;;12.60;47.20;;;;;;5098989;28;20044;-68
2021/04/27 11:04:37;;;;;;;4.45;2.50;;;12.70;45.80;;;;;;5088844;28;20112;-68
2021/04/27 11:07:22;;;;;;;3.80;2.10;;;12.90;45.10;;;;;;5092052;28;20075;-71
2021/04/27 11:10:05;;;;;;;5.35;2.30;;;13.00;43.50;;;;;;5090797;28;20052;-69
2021/04/27 11:12:37;;;;;;;5.70;2.70;;;13.00;43.50;;;;;;5100339;28;20108;-69
2021/04/27 11:15:06;;;;;;;3.40;2.67;;;13.10;43.30;;;;;;5090371;28;20086;-70
2021/04/27 11:17:37;;;;;;;5.82;2.60;;;13.20;43.80;;;;;;5097815;28;20044;-68
2021/04/27 11:20:04;;;;;;;;;;;13.20;43.60;;;;;;5089392;28;20063;-73
2021/04/27 11:22:33;;;;;;;4.07;2.85;;;13.20;41.90;;;;;;5097907;28;19924;-71
2021/04/27 11:25:01;;;;;;;4.18;2.42;;;13.20;44.10;;;;;;5091627;28;20430;-73
2021/04/27 11:27:33;;;;;;;3.60;2.25;;;13.30;42.20;;;;;;5100438;28;20144;-73
2021/04/27 11:30:07;;;;;;;3.47;2.33;;;13.30;41.90;;;;;;5087727;28;20535;-72
2021/04/27 11:32:38;;;;;;;3.67;2.33;;;13.30;42.40;;;;;;5100985;28;20040;-73
2021/04/27 11:35:16;;;;;;;4.32;2.45;;;13.40;41.70;;;;;;5090754;28;20150;-72
2021/04/27 11:37:58;;;;;;;4.63;2.55;;;13.30;39.40;;;;;;5086761;28;20048;-72
2021/04/27 11:40:38;;;;;;;5.38;2.85;;;13.30;40.90;;;;;;5078931;28;20124;-73
2021/04/27 11:43:09;;;;;;;3.28;2.50;;;13.40;40.90;;;;;;5076011;28;20064;-72
2021/04/27 11:45:38;;;;;;;4.28;2.88;;;13.60;40.80;;;;;;5067506;28;20041;-72
2021/04/27 11:48:09;;;;;;;5.22;2.70;;;13.60;41.50;;;;;;5076493;28;20050;-72
2021/04/27 11:50:35;;;;;;;6.07;3.08;;;13.70;40.90;;;;;;5068954;28;20067;-73
2021/04/27 11:53:05;;;;;;;5.00;2.47;;;13.70;40.10;;;;;;5078698;28;20428;-71
2021/04/27 11:55:31;;;;;;;;;;;13.80;37.80;;;;;;5073473;28;20040;-65
2021/04/27 11:58:14;;;;;;;4.25;2.88;;;13.80;42.50;;;;;;5080818;28;19931;-66
2021/04/27 12:00:52;;;;;;;4.68;2.65;;;13.70;38.90;;;;;;5068462;28;20048;-65
2021/04/27 12:03:34;;;;;;;5.07;3.30;;;13.80;38.50;;;;;;5076683;28;20544;-65
2021/04/27 12:06:05;;;;;;;4.97;2.92;;;13.90;39.90;;;;;;5083008;28;20143;-73
2021/04/27 12:08:37;;;;;;;6.63;3.83;;;14.40;38.80;;;;;;5081236;28;20404;-73
2021/04/27 12:11:19;;;;;;;3.85;3.30;;;14.40;38.80;;;;;;5080726;28;20052;-72
2021/04/27 12:13:50;;;;;;;3.75;3.35;;;14.40;38.50;;;;;;5074414;28;20614;-72
2021/04/27 12:16:37;;;;;;;9.25;5.82;;;14.30;38.90;;;;;;5082323;28;20047;-74
2021/04/27 12:19:12;;;;;;;8.10;4.07;;;14.20;39.00;;;;;;5077922;28;20040;-73
2021/04/27 12:21:43;;;;;;;6.57;3.72;;;14.10;38.80;;;;;;5066649;28;20047;-72
2021/04/27 12:24:14;;;;;;;6.18;3.80;;;14.10;37.80;;;;;;5061847;28;20060;-72
2021/04/27 12:26:49;;;;;;;4.60;3.28;;;14.20;39.50;;;;;;5056941;28;20049;-74
2021/04/27 12:29:15;;;;;;;6.93;3.70;;;14.40;40.40;;;;;;5059684;28;20468;-67
2021/04/27 12:31:43;;;;;;;5.13;3.38;;;14.80;37.00;;;;;;5060326;28;20120;-81
2021/04/27 12:34:15;;;;;;;7.47;3.50;;;15.00;35.90;;;;;;5058227;28;20047;-74
2021/04/27 12:36:46;;;;;;;4.10;3.47;;;14.90;36.50;;;;;;5044916;28;20173;-73
2021/04/27 12:39:26;;;;;;;5.22;3.70;;;14.80;37.00;;;;;;5057427;28;20037;-73
2021/04/27 12:41:53;;;;;;;;;;;14.80;35.70;;;;;;5061881;28;20049;-73
2021/04/27 12:44:40;;;;;;;7.00;3.10;;;14.80;35.50;;;;;;5061059;28;20447;-74
2021/04/27 12:47:37;;;;;;;5.20;3.67;;;15.00;37.10;;;;;;5046773;28;20066;-74
2021/04/27 12:50:08;;;;;;;6.45;3.63;;;15.00;36.00;;;;;;5032447;28;20052;-74
2021/04/27 12:52:41;;;;;;;6.35;3.85;;;15.00;35.30;;;;;;5054221;28;20045;-74
2021/04/27 12:55:12;;;;;;;5.05;3.40;;;14.80;34.80;;;;;;5038167;28;20057;-74
2021/04/27 12:57:39;;;;;;;7.10;3.72;;;14.80;33.10;;;;;;5056822;28;20060;-74
2021/04/27 13:00:12;;;;;;;6.50;3.20;;;14.80;34.30;;;;;;5048279;28;20060;-74